sensor_id;sensor_type;location;lat;lon;timestamp;P1;durP1;ratioP1;P2;durP2;ratioP2
13185;SDS011;6658;53.080;7.428;2024-02-21T00:00:18;14.17;;;11.33;;
13185;SDS011;6658;53.080;7.428;2024-02-21T00:02:44;13.23;;;11.67;;
13185;SDS011;6658;53.080;7.428;2024-02-21T00:05:10;14.13;;;11.13;;
13185;SDS011;6658;53.080;7.428;2024-02-21T00:07:36;14.07;;;10.63;;
13185;SDS011;6658;53.080;7.428;2024-02-21T00:10:01;12.53;;;10.50;;
13185;SDS011;6658;53.080;7.428;2024-02-21T00:12:28;16.00;;;11.07;;
13185;SDS011;6658;53.080;7.428;2024-02-21T00:14:54;10.70;;;9.53;;
13185;SDS011;6658;53.080;7.428;2024-02-21T00:17:19;12.87;;;10.57;;
13185;SDS011;6658;53.080;7.428;2024-02-21T00:19:45;13.87;;;10.80;;
13185;SDS011;6658;53.080;7.428;2024-02-21T00:22:10;16.03;;;11.07;;
13185;SDS011;6658;53.080;7.428;2024-02-21T00:24:36;14.87;;;10.53;;
13185;SDS011;6658;53.080;7.428;2024-02-21T00:27:02;13.70;;;10.43;;
13185;SDS011;6658;53.080;7.428;2024-02-21T00:29:28;13.27;;;9.53;;
13185;SDS011;6658;53.080;7.428;2024-02-21T00:31:54;12.07;;;10.37;;
13185;SDS011;6658;53.080;7.428;2024-02-21T00:34:20;12.90;;;9.73;;
13185;SDS011;6658;53.080;7.428;2024-02-21T00:36:45;11.97;;;9.20;;
13185;SDS011;6658;53.080;7.428;2024-02-21T00:39:11;10.20;;;8.87;;
13185;SDS011;6658;53.080;7.428;2024-02-21T00:41:36;10.60;;;9.37;;
13185;SDS011;6658;53.080;7.428;2024-02-21T00:44:02;11.03;;;9.33;;
13185;SDS011;6658;53.080;7.428;2024-02-21T00:46:30;12.63;;;9.03;;
13185;SDS011;6658;53.080;7.428;2024-02-21T00:48:56;11.60;;;9.43;;
13185;SDS011;6658;53.080;7.428;2024-02-21T00:51:21;10.87;;;9.27;;
13185;SDS011;6658;53.080;7.428;2024-02-21T00:53:47;9.97;;;8.63;;
13185;SDS011;6658;53.080;7.428;2024-02-21T00:56:13;10.03;;;8.33;;
13185;SDS011;6658;53.080;7.428;2024-02-21T00:58:38;12.07;;;9.20;;
13185;SDS011;6658;53.080;7.428;2024-02-21T01:01:04;11.40;;;8.87;;
13185;SDS011;6658;53.080;7.428;2024-02-21T01:03:30;11.37;;;9.07;;
13185;SDS011;6658;53.080;7.428;2024-02-21T01:05:55;15.00;;;10.50;;
13185;SDS011;6658;53.080;7.428;2024-02-21T01:08:21;12.27;;;8.30;;
13185;SDS011;6658;53.080;7.428;2024-02-21T01:10:47;10.97;;;8.33;;
13185;SDS011;6658;53.080;7.428;2024-02-21T01:13:12;11.13;;;9.03;;
13185;SDS011;6658;53.080;7.428;2024-02-21T01:15:38;12.10;;;8.60;;
13185;SDS011;6658;53.080;7.428;2024-02-21T01:18:04;11.30;;;8.80;;
13185;SDS011;6658;53.080;7.428;2024-02-21T01:20:30;11.33;;;9.00;;
13185;SDS011;6658;53.080;7.428;2024-02-21T01:22:55;9.03;;;8.10;;
13185;SDS011;6658;53.080;7.428;2024-02-21T01:25:21;10.77;;;8.80;;
13185;SDS011;6658;53.080;7.428;2024-02-21T01:27:47;10.77;;;9.17;;
13185;SDS011;6658;53.080;7.428;2024-02-21T01:30:12;10.47;;;8.57;;
13185;SDS011;6658;53.080;7.428;2024-02-21T01:32:38;11.40;;;8.47;;
13185;SDS011;6658;53.080;7.428;2024-02-21T01:35:04;11.20;;;8.70;;
13185;SDS011;6658;53.080;7.428;2024-02-21T01:37:30;10.60;;;8.17;;
13185;SDS011;6658;53.080;7.428;2024-02-21T01:39:55;12.10;;;7.87;;
13185;SDS011;6658;53.080;7.428;2024-02-21T01:42:21;13.60;;;8.07;;
13185;SDS011;6658;53.080;7.428;2024-02-21T01:44:47;10.73;;;7.90;;
13185;SDS011;6658;53.080;7.428;2024-02-21T01:47:12;9.07;;;7.50;;
13185;SDS011;6658;53.080;7.428;2024-02-21T01:49:42;8.27;;;7.00;;
13185;SDS011;6658;53.080;7.428;2024-02-21T01:52:08;10.43;;;6.87;;
13185;SDS011;6658;53.080;7.428;2024-02-21T01:54:35;8.30;;;6.93;;
13185;SDS011;6658;53.080;7.428;2024-02-21T01:57:01;11.23;;;6.77;;
13185;SDS011;6658;53.080;7.428;2024-02-21T01:59:27;8.60;;;7.00;;
13185;SDS011;6658;53.080;7.428;2024-02-21T02:04:27;9.47;;;7.40;;
13185;SDS011;6658;53.080;7.428;2024-02-21T02:06:59;10.43;;;6.83;;
13185;SDS011;6658;53.080;7.428;2024-02-21T02:09:27;8.87;;;6.57;;
13185;SDS011;6658;53.080;7.428;2024-02-21T02:11:53;12.10;;;6.60;;
13185;SDS011;6658;53.080;7.428;2024-02-21T02:14:19;9.27;;;6.77;;
13185;SDS011;6658;53.080;7.428;2024-02-21T02:16:48;9.63;;;5.50;;
13185;SDS011;6658;53.080;7.428;2024-02-21T02:19:13;10.97;;;6.30;;
13185;SDS011;6658;53.080;7.428;2024-02-21T02:21:42;7.10;;;5.97;;
13185;SDS011;6658;53.080;7.428;2024-02-21T02:24:11;7.33;;;6.00;;
13185;SDS011;6658;53.080;7.428;2024-02-21T02:26:40;10.57;;;5.63;;
13185;SDS011;6658;53.080;7.428;2024-02-21T02:29:09;8.70;;;5.70;;
13185;SDS011;6658;53.080;7.428;2024-02-21T02:31:38;8.40;;;5.70;;
13185;SDS011;6658;53.080;7.428;2024-02-21T02:34:26;8.50;;;6.17;;
13185;SDS011;6658;53.080;7.428;2024-02-21T02:36:55;8.23;;;6.20;;
13185;SDS011;6658;53.080;7.428;2024-02-21T02:39:31;6.80;;;5.83;;
13185;SDS011;6658;53.080;7.428;2024-02-21T02:41:57;9.43;;;5.87;;
13185;SDS011;6658;53.080;7.428;2024-02-21T02:44:23;8.30;;;5.27;;
13185;SDS011;6658;53.080;7.428;2024-02-21T02:46:49;7.53;;;5.63;;
13185;SDS011;6658;53.080;7.428;2024-02-21T02:49:14;8.93;;;5.63;;
13185;SDS011;6658;53.080;7.428;2024-02-21T02:51:43;8.63;;;5.53;;
13185;SDS011;6658;53.080;7.428;2024-02-21T02:54:09;9.43;;;5.97;;
13185;SDS011;6658;53.080;7.428;2024-02-21T02:56:36;11.03;;;6.37;;
13185;SDS011;6658;53.080;7.428;2024-02-21T02:59:04;7.90;;;5.43;;
13185;SDS011;6658;53.080;7.428;2024-02-21T03:01:33;8.33;;;5.80;;
13185;SDS011;6658;53.080;7.428;2024-02-21T03:03:59;5.70;;;5.07;;
13185;SDS011;6658;53.080;7.428;2024-02-21T03:06:25;8.50;;;5.93;;
13185;SDS011;6658;53.080;7.428;2024-02-21T03:08:51;6.50;;;5.40;;
13185;SDS011;6658;53.080;7.428;2024-02-21T03:11:19;8.83;;;5.60;;
13185;SDS011;6658;53.080;7.428;2024-02-21T03:13:48;6.27;;;5.67;;
13185;SDS011;6658;53.080;7.428;2024-02-21T03:16:21;6.47;;;5.30;;
13185;SDS011;6658;53.080;7.428;2024-02-21T03:18:47;6.97;;;5.20;;
13185;SDS011;6658;53.080;7.428;2024-02-21T03:21:13;7.13;;;5.70;;
13185;SDS011;6658;53.080;7.428;2024-02-21T03:23:39;6.17;;;5.00;;
13185;SDS011;6658;53.080;7.428;2024-02-21T03:26:05;6.17;;;5.47;;
13185;SDS011;6658;53.080;7.428;2024-02-21T03:28:31;7.17;;;4.80;;
13185;SDS011;6658;53.080;7.428;2024-02-21T03:30:56;5.73;;;4.73;;
13185;SDS011;6658;53.080;7.428;2024-02-21T03:33:25;5.07;;;4.57;;
13185;SDS011;6658;53.080;7.428;2024-02-21T03:35:51;7.33;;;5.20;;
13185;SDS011;6658;53.080;7.428;2024-02-21T03:38:16;6.30;;;4.90;;
13185;SDS011;6658;53.080;7.428;2024-02-21T03:40:42;6.53;;;5.27;;
13185;SDS011;6658;53.080;7.428;2024-02-21T03:43:08;6.63;;;4.80;;
13185;SDS011;6658;53.080;7.428;2024-02-21T03:45:33;5.57;;;4.97;;
13185;SDS011;6658;53.080;7.428;2024-02-21T03:47:59;5.47;;;4.80;;
13185;SDS011;6658;53.080;7.428;2024-02-21T03:50:25;6.30;;;4.97;;
13185;SDS011;6658;53.080;7.428;2024-02-21T03:52:56;5.33;;;4.70;;
13185;SDS011;6658;53.080;7.428;2024-02-21T03:55:22;5.47;;;4.90;;
13185;SDS011;6658;53.080;7.428;2024-02-21T03:57:47;5.90;;;5.30;;
13185;SDS011;6658;53.080;7.428;2024-02-21T04:00:18;5.73;;;5.23;;
13185;SDS011;6658;53.080;7.428;2024-02-21T04:02:44;6.10;;;5.50;;
13185;SDS011;6658;53.080;7.428;2024-02-21T04:05:09;5.43;;;4.83;;
13185;SDS011;6658;53.080;7.428;2024-02-21T04:07:43;6.87;;;5.10;;
13185;SDS011;6658;53.080;7.428;2024-02-21T04:10:08;7.47;;;5.57;;
13185;SDS011;6658;53.080;7.428;2024-02-21T04:12:37;5.57;;;5.07;;
13185;SDS011;6658;53.080;7.428;2024-02-21T04:15:08;7.80;;;5.80;;
13185;SDS011;6658;53.080;7.428;2024-02-21T04:17:42;8.07;;;5.85;;
13185;SDS011;6658;53.080;7.428;2024-02-21T04:20:13;7.20;;;5.83;;
13185;SDS011;6658;53.080;7.428;2024-02-21T04:22:40;6.93;;;5.27;;
13185;SDS011;6658;53.080;7.428;2024-02-21T04:25:07;7.40;;;5.37;;
13185;SDS011;6658;53.080;7.428;2024-02-21T04:27:33;6.00;;;5.40;;
13185;SDS011;6658;53.080;7.428;2024-02-21T04:29:59;4.87;;;4.47;;
13185;SDS011;6658;53.080;7.428;2024-02-21T04:32:25;8.20;;;4.90;;
13185;SDS011;6658;53.080;7.428;2024-02-21T04:34:54;7.57;;;5.23;;
13185;SDS011;6658;53.080;7.428;2024-02-21T04:37:19;6.47;;;4.80;;
13185;SDS011;6658;53.080;7.428;2024-02-21T04:39:45;9.63;;;4.93;;
13185;SDS011;6658;53.080;7.428;2024-02-21T04:42:11;6.47;;;4.93;;
13185;SDS011;6658;53.080;7.428;2024-02-21T04:45:25;5.30;;;4.50;;
13185;SDS011;6658;53.080;7.428;2024-02-21T04:47:53;6.73;;;4.30;;
13185;SDS011;6658;53.080;7.428;2024-02-21T04:50:19;5.67;;;4.50;;
13185;SDS011;6658;53.080;7.428;2024-02-21T04:52:45;5.60;;;5.10;;
13185;SDS011;6658;53.080;7.428;2024-02-21T04:55:20;6.20;;;4.77;;
13185;SDS011;6658;53.080;7.428;2024-02-21T04:57:53;7.20;;;5.00;;
13185;SDS011;6658;53.080;7.428;2024-02-21T05:00:30;5.23;;;4.73;;
13185;SDS011;6658;53.080;7.428;2024-02-21T05:02:56;7.43;;;4.73;;
13185;SDS011;6658;53.080;7.428;2024-02-21T05:05:24;5.90;;;4.53;;
13185;SDS011;6658;53.080;7.428;2024-02-21T05:07:50;6.50;;;5.10;;
13185;SDS011;6658;53.080;7.428;2024-02-21T05:10:22;7.33;;;4.93;;
13185;SDS011;6658;53.080;7.428;2024-02-21T05:12:57;5.27;;;4.40;;
13185;SDS011;6658;53.080;7.428;2024-02-21T05:15:25;7.10;;;4.40;;
13185;SDS011;6658;53.080;7.428;2024-02-21T05:17:56;4.93;;;4.30;;
13185;SDS011;6658;53.080;7.428;2024-02-21T05:20:31;6.17;;;4.93;;
13185;SDS011;6658;53.080;7.428;2024-02-21T05:23:08;5.20;;;4.20;;
13185;SDS011;6658;53.080;7.428;2024-02-21T05:25:42;5.60;;;4.53;;
13185;SDS011;6658;53.080;7.428;2024-02-21T05:28:16;7.27;;;5.20;;
13185;SDS011;6658;53.080;7.428;2024-02-21T05:30:45;5.20;;;4.73;;
13185;SDS011;6658;53.080;7.428;2024-02-21T05:33:10;5.07;;;4.57;;
13185;SDS011;6658;53.080;7.428;2024-02-21T05:35:37;5.17;;;4.63;;
13185;SDS011;6658;53.080;7.428;2024-02-21T05:38:03;5.93;;;5.33;;
13185;SDS011;6658;53.080;7.428;2024-02-21T05:40:33;5.17;;;4.63;;
13185;SDS011;6658;53.080;7.428;2024-02-21T05:43:02;5.53;;;4.80;;
13185;SDS011;6658;53.080;7.428;2024-02-21T05:45:30;5.93;;;5.13;;
13185;SDS011;6658;53.080;7.428;2024-02-21T05:47:56;6.23;;;5.37;;
13185;SDS011;6658;53.080;7.428;2024-02-21T05:50:24;5.23;;;4.83;;
13185;SDS011;6658;53.080;7.428;2024-02-21T05:52:57;7.53;;;5.87;;
13185;SDS011;6658;53.080;7.428;2024-02-21T05:55:35;6.67;;;5.80;;
13185;SDS011;6658;53.080;7.428;2024-02-21T05:58:10;6.40;;;5.60;;
13185;SDS011;6658;53.080;7.428;2024-02-21T06:00:39;6.70;;;5.97;;
13185;SDS011;6658;53.080;7.428;2024-02-21T06:03:04;6.30;;;5.70;;
13185;SDS011;6658;53.080;7.428;2024-02-21T06:05:39;7.30;;;6.47;;
13185;SDS011;6658;53.080;7.428;2024-02-21T06:08:05;7.50;;;5.87;;
13185;SDS011;6658;53.080;7.428;2024-02-21T06:10:31;9.33;;;6.90;;
13185;SDS011;6658;53.080;7.428;2024-02-21T06:12:57;9.53;;;6.13;;
13185;SDS011;6658;53.080;7.428;2024-02-21T06:15:23;7.70;;;6.83;;
13185;SDS011;6658;53.080;7.428;2024-02-21T06:17:56;9.13;;;7.07;;
13185;SDS011;6658;53.080;7.428;2024-02-21T06:20:22;11.83;;;7.33;;
13185;SDS011;6658;53.080;7.428;2024-02-21T06:22:54;9.87;;;7.80;;
13185;SDS011;6658;53.080;7.428;2024-02-21T06:25:22;10.27;;;8.17;;
13185;SDS011;6658;53.080;7.428;2024-02-21T06:27:50;12.47;;;8.03;;
13185;SDS011;6658;53.080;7.428;2024-02-21T06:30:19;11.40;;;8.43;;
13185;SDS011;6658;53.080;7.428;2024-02-21T06:32:47;10.40;;;8.80;;
13185;SDS011;6658;53.080;7.428;2024-02-21T06:35:13;12.97;;;8.70;;
13185;SDS011;6658;53.080;7.428;2024-02-21T06:37:39;15.23;;;9.67;;
13185;SDS011;6658;53.080;7.428;2024-02-21T06:40:05;13.50;;;8.77;;
13185;SDS011;6658;53.080;7.428;2024-02-21T06:42:31;18.47;;;9.00;;
13185;SDS011;6658;53.080;7.428;2024-02-21T06:44:57;14.03;;;9.10;;
13185;SDS011;6658;53.080;7.428;2024-02-21T06:47:46;13.60;;;9.60;;
13185;SDS011;6658;53.080;7.428;2024-02-21T06:50:12;14.40;;;9.77;;
13185;SDS011;6658;53.080;7.428;2024-02-21T06:52:47;12.93;;;9.37;;
13185;SDS011;6658;53.080;7.428;2024-02-21T06:55:24;14.80;;;8.60;;
13185;SDS011;6658;53.080;7.428;2024-02-21T06:57:50;16.13;;;9.57;;
13185;SDS011;6658;53.080;7.428;2024-02-21T07:00:24;16.10;;;9.23;;
13185;SDS011;6658;53.080;7.428;2024-02-21T07:02:51;14.33;;;9.70;;
13185;SDS011;6658;53.080;7.428;2024-02-21T07:05:17;11.67;;;8.30;;
13185;SDS011;6658;53.080;7.428;2024-02-21T07:07:45;17.00;;;9.53;;
13185;SDS011;6658;53.080;7.428;2024-02-21T07:10:24;13.80;;;8.60;;
13185;SDS011;6658;53.080;7.428;2024-02-21T07:12:54;11.87;;;8.67;;
13185;SDS011;6658;53.080;7.428;2024-02-21T07:15:26;15.67;;;8.60;;
13185;SDS011;6658;53.080;7.428;2024-02-21T07:17:58;15.37;;;8.70;;
13185;SDS011;6658;53.080;7.428;2024-02-21T07:20:31;14.80;;;9.23;;
13185;SDS011;6658;53.080;7.428;2024-02-21T07:22:58;16.23;;;9.23;;
13185;SDS011;6658;53.080;7.428;2024-02-21T07:25:24;14.10;;;8.63;;
13185;SDS011;6658;53.080;7.428;2024-02-21T07:27:50;16.90;;;9.27;;
13185;SDS011;6658;53.080;7.428;2024-02-21T07:30:16;12.97;;;9.13;;
13185;SDS011;6658;53.080;7.428;2024-02-21T07:32:42;13.00;;;9.03;;
13185;SDS011;6658;53.080;7.428;2024-02-21T07:35:10;14.43;;;8.70;;
13185;SDS011;6658;53.080;7.428;2024-02-21T07:37:37;14.30;;;9.10;;
13185;SDS011;6658;53.080;7.428;2024-02-21T07:40:09;13.47;;;9.17;;
13185;SDS011;6658;53.080;7.428;2024-02-21T07:42:41;11.90;;;8.53;;
13185;SDS011;6658;53.080;7.428;2024-02-21T07:45:08;14.57;;;10.03;;
13185;SDS011;6658;53.080;7.428;2024-02-21T07:47:35;12.63;;;9.37;;
13185;SDS011;6658;53.080;7.428;2024-02-21T07:50:02;13.90;;;9.60;;
13185;SDS011;6658;53.080;7.428;2024-02-21T07:52:28;15.17;;;9.60;;
13185;SDS011;6658;53.080;7.428;2024-02-21T07:54:55;14.13;;;10.43;;
13185;SDS011;6658;53.080;7.428;2024-02-21T07:57:20;15.03;;;10.40;;
13185;SDS011;6658;53.080;7.428;2024-02-21T07:59:57;15.83;;;11.13;;
13185;SDS011;6658;53.080;7.428;2024-02-21T08:02:22;13.43;;;10.53;;
13185;SDS011;6658;53.080;7.428;2024-02-21T08:04:48;14.93;;;11.57;;
13185;SDS011;6658;53.080;7.428;2024-02-21T08:07:19;12.33;;;10.90;;
13185;SDS011;6658;53.080;7.428;2024-02-21T08:09:47;14.97;;;10.60;;
13185;SDS011;6658;53.080;7.428;2024-02-21T08:12:13;14.60;;;11.03;;
13185;SDS011;6658;53.080;7.428;2024-02-21T08:14:39;12.33;;;9.90;;
13185;SDS011;6658;53.080;7.428;2024-02-21T08:17:04;11.50;;;10.27;;
13185;SDS011;6658;53.080;7.428;2024-02-21T08:19:30;11.10;;;9.77;;
13185;SDS011;6658;53.080;7.428;2024-02-21T08:21:58;13.57;;;10.30;;
13185;SDS011;6658;53.080;7.428;2024-02-21T08:24:24;15.67;;;10.43;;
13185;SDS011;6658;53.080;7.428;2024-02-21T08:26:53;14.60;;;10.63;;
13185;SDS011;6658;53.080;7.428;2024-02-21T08:29:30;12.07;;;10.10;;
13185;SDS011;6658;53.080;7.428;2024-02-21T08:31:56;13.73;;;9.67;;
13185;SDS011;6658;53.080;7.428;2024-02-21T08:34:22;13.37;;;10.07;;
13185;SDS011;6658;53.080;7.428;2024-02-21T08:36:48;10.73;;;9.53;;
13185;SDS011;6658;53.080;7.428;2024-02-21T08:39:13;11.03;;;9.23;;
13185;SDS011;6658;53.080;7.428;2024-02-21T08:41:42;13.30;;;10.03;;
13185;SDS011;6658;53.080;7.428;2024-02-21T08:44:08;10.80;;;9.60;;
13185;SDS011;6658;53.080;7.428;2024-02-21T08:46:34;15.23;;;10.57;;
13185;SDS011;6658;53.080;7.428;2024-02-21T08:49:00;11.10;;;9.70;;
13185;SDS011;6658;53.080;7.428;2024-02-21T08:51:28;14.77;;;11.70;;
13185;SDS011;6658;53.080;7.428;2024-02-21T08:53:54;12.73;;;11.10;;
13185;SDS011;6658;53.080;7.428;2024-02-21T08:56:20;13.17;;;11.50;;
13185;SDS011;6658;53.080;7.428;2024-02-21T08:58:49;12.43;;;10.73;;
13185;SDS011;6658;53.080;7.428;2024-02-21T09:01:18;13.53;;;11.13;;
13185;SDS011;6658;53.080;7.428;2024-02-21T09:03:46;13.93;;;11.30;;
13185;SDS011;6658;53.080;7.428;2024-02-21T09:06:18;12.97;;;11.03;;
13185;SDS011;6658;53.080;7.428;2024-02-21T09:08:49;11.80;;;10.70;;
13185;SDS011;6658;53.080;7.428;2024-02-21T09:11:15;12.67;;;11.37;;
13185;SDS011;6658;53.080;7.428;2024-02-21T09:13:52;12.53;;;11.03;;
13185;SDS011;6658;53.080;7.428;2024-02-21T09:16:21;13.50;;;11.60;;
13185;SDS011;6658;53.080;7.428;2024-02-21T09:18:47;12.37;;;11.07;;
13185;SDS011;6658;53.080;7.428;2024-02-21T09:21:13;13.43;;;10.83;;
13185;SDS011;6658;53.080;7.428;2024-02-21T09:23:42;12.70;;;11.00;;
13185;SDS011;6658;53.080;7.428;2024-02-21T09:26:11;11.60;;;10.47;;
13185;SDS011;6658;53.080;7.428;2024-02-21T09:28:41;12.23;;;11.03;;
13185;SDS011;6658;53.080;7.428;2024-02-21T09:31:09;12.30;;;11.00;;
13185;SDS011;6658;53.080;7.428;2024-02-21T09:33:35;12.93;;;10.70;;
13185;SDS011;6658;53.080;7.428;2024-02-21T09:36:02;13.30;;;10.97;;
13185;SDS011;6658;53.080;7.428;2024-02-21T09:38:34;12.23;;;10.83;;
13185;SDS011;6658;53.080;7.428;2024-02-21T09:41:14;12.67;;;9.90;;
13185;SDS011;6658;53.080;7.428;2024-02-21T09:43:53;11.33;;;10.20;;
13185;SDS011;6658;53.080;7.428;2024-02-21T09:49:31;11.50;;;10.30;;
13185;SDS011;6658;53.080;7.428;2024-02-21T09:51:59;12.67;;;10.20;;
13185;SDS011;6658;53.080;7.428;2024-02-21T09:54:33;12.70;;;10.83;;
13185;SDS011;6658;53.080;7.428;2024-02-21T09:57:05;11.47;;;10.37;;
13185;SDS011;6658;53.080;7.428;2024-02-21T09:59:32;11.93;;;9.77;;
13185;SDS011;6658;53.080;7.428;2024-02-21T10:02:01;11.43;;;10.23;;
13185;SDS011;6658;53.080;7.428;2024-02-21T10:04:47;11.13;;;9.87;;
13185;SDS011;6658;53.080;7.428;2024-02-21T10:07:16;10.90;;;9.80;;
13185;SDS011;6658;53.080;7.428;2024-02-21T10:09:44;10.07;;;9.10;;
13185;SDS011;6658;53.080;7.428;2024-02-21T10:12:25;10.93;;;9.87;;
13185;SDS011;6658;53.080;7.428;2024-02-21T10:14:59;12.33;;;9.57;;
13185;SDS011;6658;53.080;7.428;2024-02-21T10:17:28;13.67;;;10.00;;
13185;SDS011;6658;53.080;7.428;2024-02-21T10:20:06;11.80;;;9.40;;
13185;SDS011;6658;53.080;7.428;2024-02-21T10:22:35;12.27;;;9.70;;
13185;SDS011;6658;53.080;7.428;2024-02-21T10:25:10;9.90;;;8.90;;
13185;SDS011;6658;53.080;7.428;2024-02-21T10:27:38;9.37;;;8.47;;
13185;SDS011;6658;53.080;7.428;2024-02-21T10:30:05;9.63;;;8.67;;
13185;SDS011;6658;53.080;7.428;2024-02-21T10:32:48;9.87;;;8.50;;
13185;SDS011;6658;53.080;7.428;2024-02-21T10:35:27;8.37;;;7.57;;
13185;SDS011;6658;53.080;7.428;2024-02-21T10:37:57;9.10;;;7.50;;
13185;SDS011;6658;53.080;7.428;2024-02-21T10:40:24;9.63;;;7.17;;
13185;SDS011;6658;53.080;7.428;2024-02-21T10:42:59;9.07;;;7.70;;
13185;SDS011;6658;53.080;7.428;2024-02-21T10:45:29;8.07;;;7.27;;
13185;SDS011;6658;53.080;7.428;2024-02-21T10:48:01;8.00;;;7.20;;
13185;SDS011;6658;53.080;7.428;2024-02-21T10:50:57;9.37;;;6.80;;
13185;SDS011;6658;53.080;7.428;2024-02-21T10:53:45;7.83;;;6.77;;
13185;SDS011;6658;53.080;7.428;2024-02-21T10:56:30;7.57;;;6.20;;
13185;SDS011;6658;53.080;7.428;2024-02-21T10:59:01;8.20;;;6.70;;
13185;SDS011;6658;53.080;7.428;2024-02-21T11:01:28;7.90;;;6.47;;
13185;SDS011;6658;53.080;7.428;2024-02-21T11:03:58;8.43;;;6.23;;
13185;SDS011;6658;53.080;7.428;2024-02-21T11:06:27;7.40;;;6.30;;
13185;SDS011;6658;53.080;7.428;2024-02-21T11:09:00;7.93;;;6.43;;
13185;SDS011;6658;53.080;7.428;2024-02-21T11:11:35;10.17;;;6.60;;
13185;SDS011;6658;53.080;7.428;2024-02-21T11:14:17;7.43;;;5.77;;
13185;SDS011;6658;53.080;7.428;2024-02-21T11:16:44;6.47;;;5.40;;
13185;SDS011;6658;53.080;7.428;2024-02-21T11:19:25;6.47;;;5.87;;
13185;SDS011;6658;53.080;7.428;2024-02-21T11:21:52;7.43;;;5.70;;
13185;SDS011;6658;53.080;7.428;2024-02-21T11:24:28;7.33;;;5.60;;
13185;SDS011;6658;53.080;7.428;2024-02-21T11:26:55;7.17;;;5.93;;
13185;SDS011;6658;53.080;7.428;2024-02-21T11:29:24;6.77;;;5.83;;
13185;SDS011;6658;53.080;7.428;2024-02-21T11:31:55;7.23;;;5.40;;
13185;SDS011;6658;53.080;7.428;2024-02-21T11:34:21;9.67;;;5.70;;
13185;SDS011;6658;53.080;7.428;2024-02-21T11:36:48;6.53;;;5.33;;
13185;SDS011;6658;53.080;7.428;2024-02-21T11:39:18;7.70;;;5.23;;
13185;SDS011;6658;53.080;7.428;2024-02-21T11:42:03;8.33;;;5.70;;
13185;SDS011;6658;53.080;7.428;2024-02-21T11:44:31;9.03;;;7.10;;
13185;SDS011;6658;53.080;7.428;2024-02-21T11:46:57;6.20;;;5.23;;
13185;SDS011;6658;53.080;7.428;2024-02-21T11:49:29;5.33;;;4.63;;
13185;SDS011;6658;53.080;7.428;2024-02-21T11:52:02;5.77;;;5.10;;
13185;SDS011;6658;53.080;7.428;2024-02-21T11:54:32;5.00;;;4.47;;
13185;SDS011;6658;53.080;7.428;2024-02-21T11:57:00;5.20;;;4.57;;
13185;SDS011;6658;53.080;7.428;2024-02-21T11:59:27;5.10;;;4.50;;
13185;SDS011;6658;53.080;7.428;2024-02-21T12:01:57;5.07;;;4.27;;
13185;SDS011;6658;53.080;7.428;2024-02-21T12:04:24;7.57;;;5.10;;
13185;SDS011;6658;53.080;7.428;2024-02-21T12:06:50;5.80;;;4.50;;
13185;SDS011;6658;53.080;7.428;2024-02-21T12:09:19;5.80;;;4.37;;
13185;SDS011;6658;53.080;7.428;2024-02-21T12:11:45;5.53;;;5.03;;
13185;SDS011;6658;53.080;7.428;2024-02-21T12:14:15;5.17;;;4.57;;
13185;SDS011;6658;53.080;7.428;2024-02-21T12:16:42;5.70;;;4.57;;
13185;SDS011;6658;53.080;7.428;2024-02-21T12:19:12;4.10;;;3.70;;
13185;SDS011;6658;53.080;7.428;2024-02-21T12:21:38;5.67;;;4.53;;
13185;SDS011;6658;53.080;7.428;2024-02-21T12:24:27;7.07;;;4.53;;
13185;SDS011;6658;53.080;7.428;2024-02-21T12:26:52;5.40;;;3.80;;
13185;SDS011;6658;53.080;7.428;2024-02-21T12:29:21;5.57;;;4.10;;
13185;SDS011;6658;53.080;7.428;2024-02-21T12:31:49;5.60;;;4.07;;
13185;SDS011;6658;53.080;7.428;2024-02-21T12:34:15;6.27;;;5.67;;
13185;SDS011;6658;53.080;7.428;2024-02-21T12:36:42;11.70;;;10.37;;
13185;SDS011;6658;53.080;7.428;2024-02-21T12:39:13;4.47;;;4.07;;
13185;SDS011;6658;53.080;7.428;2024-02-21T12:41:39;5.23;;;4.73;;
13185;SDS011;6658;53.080;7.428;2024-02-21T12:44:11;4.27;;;3.87;;
13185;SDS011;6658;53.080;7.428;2024-02-21T12:46:37;4.10;;;3.70;;
13185;SDS011;6658;53.080;7.428;2024-02-21T12:49:04;5.57;;;3.60;;
13185;SDS011;6658;53.080;7.428;2024-02-21T12:51:32;5.13;;;3.70;;
13185;SDS011;6658;53.080;7.428;2024-02-21T12:53:58;4.93;;;4.17;;
13185;SDS011;6658;53.080;7.428;2024-02-21T12:56:30;3.90;;;3.60;;
13185;SDS011;6658;53.080;7.428;2024-02-21T12:58:57;4.27;;;3.80;;
13185;SDS011;6658;53.080;7.428;2024-02-21T13:01:35;4.37;;;3.90;;
13185;SDS011;6658;53.080;7.428;2024-02-21T13:04:01;4.40;;;4.00;;
13185;SDS011;6658;53.080;7.428;2024-02-21T13:06:28;3.87;;;3.47;;
13185;SDS011;6658;53.080;7.428;2024-02-21T13:08:54;4.47;;;3.60;;
13185;SDS011;6658;53.080;7.428;2024-02-21T13:11:19;3.93;;;3.63;;
13185;SDS011;6658;53.080;7.428;2024-02-21T13:13:45;9.43;;;8.47;;
13185;SDS011;6658;53.080;7.428;2024-02-21T13:16:11;4.73;;;3.90;;
13185;SDS011;6658;53.080;7.428;2024-02-21T13:18:37;7.10;;;4.03;;
13185;SDS011;6658;53.080;7.428;2024-02-21T13:21:05;5.13;;;3.73;;
13185;SDS011;6658;53.080;7.428;2024-02-21T13:23:31;4.17;;;3.87;;
13185;SDS011;6658;53.080;7.428;2024-02-21T13:25:58;3.40;;;3.20;;
13185;SDS011;6658;53.080;7.428;2024-02-21T13:28:23;3.47;;;3.13;;
13185;SDS011;6658;53.080;7.428;2024-02-21T13:30:49;3.87;;;3.57;;
13185;SDS011;6658;53.080;7.428;2024-02-21T13:33:15;5.07;;;4.63;;
13185;SDS011;6658;53.080;7.428;2024-02-21T13:35:41;5.60;;;3.90;;
13185;SDS011;6658;53.080;7.428;2024-02-21T13:38:09;4.33;;;3.93;;
13185;SDS011;6658;53.080;7.428;2024-02-21T13:40:35;5.20;;;4.00;;
13185;SDS011;6658;53.080;7.428;2024-02-21T13:43:00;5.77;;;4.47;;
13185;SDS011;6658;53.080;7.428;2024-02-21T13:45:27;5.30;;;3.97;;
13185;SDS011;6658;53.080;7.428;2024-02-21T13:47:53;5.10;;;4.50;;
13185;SDS011;6658;53.080;7.428;2024-02-21T13:50:19;5.27;;;4.80;;
13185;SDS011;6658;53.080;7.428;2024-02-21T13:52:47;3.60;;;3.30;;
13185;SDS011;6658;53.080;7.428;2024-02-21T13:55:21;3.03;;;2.60;;
13185;SDS011;6658;53.080;7.428;2024-02-21T13:57:51;3.80;;;3.17;;
13185;SDS011;6658;53.080;7.428;2024-02-21T14:00:16;3.40;;;2.93;;
13185;SDS011;6658;53.080;7.428;2024-02-21T14:02:46;2.43;;;1.90;;
13185;SDS011;6658;53.080;7.428;2024-02-21T14:05:19;2.53;;;2.07;;
13185;SDS011;6658;53.080;7.428;2024-02-21T14:07:45;3.40;;;2.50;;
13185;SDS011;6658;53.080;7.428;2024-02-21T14:10:20;2.60;;;2.40;;
13185;SDS011;6658;53.080;7.428;2024-02-21T14:12:49;2.73;;;2.30;;
13185;SDS011;6658;53.080;7.428;2024-02-21T14:15:15;2.60;;;2.40;;
13185;SDS011;6658;53.080;7.428;2024-02-21T14:17:44;2.50;;;2.30;;
13185;SDS011;6658;53.080;7.428;2024-02-21T14:20:10;2.43;;;2.23;;
13185;SDS011;6658;53.080;7.428;2024-02-21T14:22:36;3.33;;;3.03;;
13185;SDS011;6658;53.080;7.428;2024-02-21T14:25:03;2.80;;;2.60;;
13185;SDS011;6658;53.080;7.428;2024-02-21T14:27:40;2.50;;;2.30;;
13185;SDS011;6658;53.080;7.428;2024-02-21T14:30:06;2.87;;;2.57;;
13185;SDS011;6658;53.080;7.428;2024-02-21T14:32:44;3.57;;;2.57;;
13185;SDS011;6658;53.080;7.428;2024-02-21T14:35:10;3.93;;;2.90;;
13185;SDS011;6658;53.080;7.428;2024-02-21T14:37:49;2.97;;;2.40;;
13185;SDS011;6658;53.080;7.428;2024-02-21T14:40:22;3.57;;;2.50;;
13185;SDS011;6658;53.080;7.428;2024-02-21T14:42:48;3.27;;;2.67;;
13185;SDS011;6658;53.080;7.428;2024-02-21T14:45:14;3.80;;;2.60;;
13185;SDS011;6658;53.080;7.428;2024-02-21T14:47:45;3.67;;;2.77;;
13185;SDS011;6658;53.080;7.428;2024-02-21T14:50:18;2.80;;;2.60;;
13185;SDS011;6658;53.080;7.428;2024-02-21T14:52:46;2.90;;;2.60;;
13185;SDS011;6658;53.080;7.428;2024-02-21T14:55:13;3.57;;;2.90;;
13185;SDS011;6658;53.080;7.428;2024-02-21T14:57:41;3.90;;;2.90;;
13185;SDS011;6658;53.080;7.428;2024-02-21T15:00:10;3.70;;;2.73;;
13185;SDS011;6658;53.080;7.428;2024-02-21T15:02:45;3.90;;;2.87;;
13185;SDS011;6658;53.080;7.428;2024-02-21T15:05:11;3.37;;;2.67;;
13185;SDS011;6658;53.080;7.428;2024-02-21T15:07:37;3.03;;;2.60;;